Will Rogers World Airport Oklahoma City US
ICAO: KOKC
IATA: OKC
Category: Large
Scheduled Services: Yes

Elevation: 1295 ft
TransAlt. 18000 ft.

Airport Communications:
OKE CITY APP/DEP:120.45
ATIS:125.85
CLNC DEL:124.35
GND:121.9
ANG OPS COMD POST:22.56
ROGERS TWR:119.35

KOKC Zoom In..

If Map Doesn't Load, Click Here

Runways:

(A) RW 13 length 7800 ft width 150 ft
---- / hdg 130

(B) RW 17L length 9802 ft width 150 ft
ILS 110.90 / hdg 175

(C) RW 17R length 9800 ft width 150 ft
ILS 110.70 / hdg 175

(D) RW 18 length 3078 ft width 75 ft
---- / hdg 175

(E) RW 31 length 7800 ft width 150 ft
---- / hdg 310

(F) RW 35L length 9800 ft width 150 ft
ILS 110.70 / hdg 355

(G) RW 35R length 9802 ft width 150 ft
ILS 110.90 / hdg 355

(H) RW 36 length 3078 ft width 75 ft
---- / hdg 355

Location; KOKC
Day. 21 / Time. 15.27 Zulu
* Altimeter: 30.02
* Temperature: 21° c. 69.8°f.
* Wind from: 050° Speed 12 kn.
Dewpoint: 21° c.
Visibility: 4 Statute Miles.
Clouds: Broken 600 ft.
Clouds: Overcast 1200 ft.
Conditions: Light Rain.Conditions: Mist.

KOKC 211527Z 05012KT 4SM -RA BR BKN006 OVC012 21/21 A3002 RMK AO2 P0010 T02110206


Wind From 050°
Speed 12 kn.

 
 
jpsmedia.com for Web Design worldairports.se 2018   terms of use